sensor_id;sensor_type;location;lat;lon;timestamp;pressure;altitude;pressure_sealevel;temperature;humidity
68948;BME280;55996;49.546;7.400;2023-11-19T00:01:46;98530.75;;;8.44;100.00
68948;BME280;55996;49.546;7.400;2023-11-19T00:04:12;98532.44;;;8.46;100.00
68948;BME280;55996;49.546;7.400;2023-11-19T00:06:38;98522.03;;;8.45;100.00
68948;BME280;55996;49.546;7.400;2023-11-19T00:09:04;98534.25;;;8.43;100.00
68948;BME280;55996;49.546;7.400;2023-11-19T00:11:30;98513.50;;;8.38;100.00
68948;BME280;55996;49.546;7.400;2023-11-19T00:13:55;98527.19;;;8.48;100.00
68948;BME280;55996;49.546;7.400;2023-11-19T00:16:20;98522.66;;;8.54;100.00
68948;BME280;55996;49.546;7.400;2023-11-19T00:18:46;98523.53;;;8.55;100.00
68948;BME280;55996;49.546;7.400;2023-11-19T00:21:11;98529.44;;;8.60;100.00
68948;BME280;55996;49.546;7.400;2023-11-19T00:23:37;98500.88;;;8.57;100.00
68948;BME280;55996;49.546;7.400;2023-11-19T00:26:03;98512.06;;;8.61;100.00
68948;BME280;55996;49.546;7.400;2023-11-19T00:28:32;98512.28;;;8.53;100.00
68948;BME280;55996;49.546;7.400;2023-11-19T00:30:58;98519.91;;;8.59;100.00
68948;BME280;55996;49.546;7.400;2023-11-19T00:33:23;98514.47;;;8.68;100.00
68948;BME280;55996;49.546;7.400;2023-11-19T00:35:49;98502.41;;;8.64;100.00
68948;BME280;55996;49.546;7.400;2023-11-19T00:38:15;98498.28;;;8.57;100.00
68948;BME280;55996;49.546;7.400;2023-11-19T00:40:41;98495.41;;;8.66;100.00
68948;BME280;55996;49.546;7.400;2023-11-19T00:43:06;98487.63;;;8.65;100.00
68948;BME280;55996;49.546;7.400;2023-11-19T00:45:32;98482.50;;;8.62;100.00
68948;BME280;55996;49.546;7.400;2023-11-19T00:47:58;98496.34;;;8.64;100.00
68948;BME280;55996;49.546;7.400;2023-11-19T00:50:25;98478.16;;;8.62;100.00
68948;BME280;55996;49.546;7.400;2023-11-19T00:52:50;98497.84;;;8.72;100.00
68948;BME280;55996;49.546;7.400;2023-11-19T00:55:16;98502.22;;;8.70;100.00
68948;BME280;55996;49.546;7.400;2023-11-19T00:57:42;98503.94;;;8.71;100.00
68948;BME280;55996;49.546;7.400;2023-11-19T01:00:08;98500.97;;;8.84;100.00
68948;BME280;55996;49.546;7.400;2023-11-19T01:02:49;98500.16;;;8.82;100.00
68948;BME280;55996;49.546;7.400;2023-11-19T01:05:15;98479.84;;;8.63;100.00
68948;BME280;55996;49.546;7.400;2023-11-19T01:07:40;98461.06;;;8.52;100.00
68948;BME280;55996;49.546;7.400;2023-11-19T01:10:06;98477.88;;;8.71;100.00
68948;BME280;55996;49.546;7.400;2023-11-19T01:12:33;98463.00;;;8.75;100.00
68948;BME280;55996;49.546;7.400;2023-11-19T01:14:59;98477.88;;;8.71;100.00
68948;BME280;55996;49.546;7.400;2023-11-19T01:17:24;98475.78;;;8.84;100.00
68948;BME280;55996;49.546;7.400;2023-11-19T01:19:49;98470.53;;;8.86;100.00
68948;BME280;55996;49.546;7.400;2023-11-19T01:22:15;98474.97;;;8.82;100.00
68948;BME280;55996;49.546;7.400;2023-11-19T01:24:41;98453.41;;;8.76;100.00
68948;BME280;55996;49.546;7.400;2023-11-19T01:27:06;98469.63;;;8.87;100.00
68948;BME280;55996;49.546;7.400;2023-11-19T01:29:31;98465.19;;;8.89;100.00
68948;BME280;55996;49.546;7.400;2023-11-19T01:31:57;98464.41;;;8.87;100.00
68948;BME280;55996;49.546;7.400;2023-11-19T01:34:22;98461.00;;;8.85;100.00
68948;BME280;55996;49.546;7.400;2023-11-19T01:36:47;98442.50;;;8.93;100.00
68948;BME280;55996;49.546;7.400;2023-11-19T01:39:14;98454.78;;;8.89;100.00
68948;BME280;55996;49.546;7.400;2023-11-19T01:41:41;98454.56;;;8.97;100.00
68948;BME280;55996;49.546;7.400;2023-11-19T01:44:06;98441.56;;;8.95;100.00
68948;BME280;55996;49.546;7.400;2023-11-19T01:46:32;98442.38;;;8.97;100.00
68948;BME280;55996;49.546;7.400;2023-11-19T01:48:57;98453.44;;;9.06;100.00
68948;BME280;55996;49.546;7.400;2023-11-19T01:51:24;98440.47;;;9.02;100.00
68948;BME280;55996;49.546;7.400;2023-11-19T01:53:50;98436.91;;;9.05;100.00
68948;BME280;55996;49.546;7.400;2023-11-19T01:56:15;98423.31;;;8.95;100.00
68948;BME280;55996;49.546;7.400;2023-11-19T01:58:43;98438.88;;;8.98;100.00
68948;BME280;55996;49.546;7.400;2023-11-19T02:01:10;98425.31;;;8.87;100.00
68948;BME280;55996;49.546;7.400;2023-11-19T02:03:37;98432.88;;;8.95;100.00
68948;BME280;55996;49.546;7.400;2023-11-19T02:06:02;98442.63;;;8.88;100.00
68948;BME280;55996;49.546;7.400;2023-11-19T02:08:29;98443.19;;;8.99;100.00
68948;BME280;55996;49.546;7.400;2023-11-19T02:10:55;98449.16;;;9.03;100.00
68948;BME280;55996;49.546;7.400;2023-11-19T02:13:24;98448.47;;;8.96;100.00
68948;BME280;55996;49.546;7.400;2023-11-19T02:15:50;98435.63;;;8.90;100.00
68948;BME280;55996;49.546;7.400;2023-11-19T02:18:24;98425.06;;;8.95;100.00
68948;BME280;55996;49.546;7.400;2023-11-19T02:20:55;98421.31;;;9.03;100.00
68948;BME280;55996;49.546;7.400;2023-11-19T02:23:21;98416.75;;;9.10;100.00
68948;BME280;55996;49.546;7.400;2023-11-19T02:28:23;98411.53;;;9.10;100.00
68948;BME280;55996;49.546;7.400;2023-11-19T02:30:49;98401.34;;;9.02;100.00
68948;BME280;55996;49.546;7.400;2023-11-19T02:33:14;98413.56;;;9.02;100.00
68948;BME280;55996;49.546;7.400;2023-11-19T02:35:40;98400.66;;;8.97;100.00
68948;BME280;55996;49.546;7.400;2023-11-19T02:38:06;98396.56;;;9.17;100.00
68948;BME280;55996;49.546;7.400;2023-11-19T02:40:32;98388.19;;;9.07;100.00
68948;BME280;55996;49.546;7.400;2023-11-19T02:42:58;98385.38;;;9.13;100.00
68948;BME280;55996;49.546;7.400;2023-11-19T02:45:23;98385.44;;;9.12;100.00
68948;BME280;55996;49.546;7.400;2023-11-19T02:47:50;98361.28;;;9.05;100.00
68948;BME280;55996;49.546;7.400;2023-11-19T02:50:18;98394.84;;;9.16;100.00
68948;BME280;55996;49.546;7.400;2023-11-19T02:52:51;98380.81;;;9.20;100.00
68948;BME280;55996;49.546;7.400;2023-11-19T02:55:16;98391.44;;;9.14;100.00
68948;BME280;55996;49.546;7.400;2023-11-19T02:57:43;98375.78;;;9.14;100.00
68948;BME280;55996;49.546;7.400;2023-11-19T03:00:17;98385.06;;;9.23;100.00
68948;BME280;55996;49.546;7.400;2023-11-19T03:02:43;98380.72;;;9.23;100.00
68948;BME280;55996;49.546;7.400;2023-11-19T03:05:19;98379.16;;;9.17;100.00
68948;BME280;55996;49.546;7.400;2023-11-19T03:07:45;98372.09;;;9.21;100.00
68948;BME280;55996;49.546;7.400;2023-11-19T03:10:10;98375.38;;;9.26;100.00
68948;BME280;55996;49.546;7.400;2023-11-19T03:12:43;98384.63;;;9.36;100.00
68948;BME280;55996;49.546;7.400;2023-11-19T03:15:09;98376.69;;;9.40;100.00
68948;BME280;55996;49.546;7.400;2023-11-19T03:17:44;98364.88;;;9.29;100.00
68948;BME280;55996;49.546;7.400;2023-11-19T03:20:11;98360.22;;;9.37;100.00
68948;BME280;55996;49.546;7.400;2023-11-19T03:22:40;98349.56;;;9.45;100.00
68948;BME280;55996;49.546;7.400;2023-11-19T03:25:07;98333.56;;;9.55;100.00
68948;BME280;55996;49.546;7.400;2023-11-19T03:27:35;98338.84;;;9.53;100.00
68948;BME280;55996;49.546;7.400;2023-11-19T03:30:02;98351.69;;;9.59;100.00
68948;BME280;55996;49.546;7.400;2023-11-19T03:32:27;98338.38;;;9.42;100.00
68948;BME280;55996;49.546;7.400;2023-11-19T03:34:53;98333.03;;;9.45;100.00
68948;BME280;55996;49.546;7.400;2023-11-19T03:37:18;98340.44;;;9.57;100.00
68948;BME280;55996;49.546;7.400;2023-11-19T03:39:44;98338.00;;;9.78;100.00
68948;BME280;55996;49.546;7.400;2023-11-19T03:42:10;98341.19;;;9.86;100.00
68948;BME280;55996;49.546;7.400;2023-11-19T03:44:38;98347.09;;;9.66;100.00
68948;BME280;55996;49.546;7.400;2023-11-19T03:47:04;98354.63;;;9.75;100.00
68948;BME280;55996;49.546;7.400;2023-11-19T03:49:29;98354.91;;;9.67;100.00
68948;BME280;55996;49.546;7.400;2023-11-19T03:51:54;98351.72;;;9.83;100.00
68948;BME280;55996;49.546;7.400;2023-11-19T03:54:20;98349.97;;;9.83;100.00
68948;BME280;55996;49.546;7.400;2023-11-19T03:56:46;98345.00;;;9.76;100.00
68948;BME280;55996;49.546;7.400;2023-11-19T03:59:11;98345.47;;;9.87;100.00
68948;BME280;55996;49.546;7.400;2023-11-19T04:01:37;98349.06;;;9.84;100.00
68948;BME280;55996;49.546;7.400;2023-11-19T04:04:02;98344.84;;;9.80;100.00
68948;BME280;55996;49.546;7.400;2023-11-19T04:06:28;98348.91;;;9.89;100.00
68948;BME280;55996;49.546;7.400;2023-11-19T04:08:53;98350.38;;;9.96;100.00
68948;BME280;55996;49.546;7.400;2023-11-19T04:11:18;98345.84;;;10.01;100.00
68948;BME280;55996;49.546;7.400;2023-11-19T04:13:44;98348.69;;;9.95;100.00
68948;BME280;55996;49.546;7.400;2023-11-19T04:16:09;98336.22;;;10.04;100.00
68948;BME280;55996;49.546;7.400;2023-11-19T04:18:34;98329.72;;;10.14;100.00
68948;BME280;55996;49.546;7.400;2023-11-19T04:21:00;98333.16;;;10.16;100.00
68948;BME280;55996;49.546;7.400;2023-11-19T04:23:25;98323.97;;;10.28;100.00
68948;BME280;55996;49.546;7.400;2023-11-19T04:25:51;98331.81;;;10.28;100.00
68948;BME280;55996;49.546;7.400;2023-11-19T04:28:16;98330.31;;;10.46;100.00
68948;BME280;55996;49.546;7.400;2023-11-19T04:30:42;98329.84;;;10.58;100.00
68948;BME280;55996;49.546;7.400;2023-11-19T04:33:08;98320.16;;;10.60;100.00
68948;BME280;55996;49.546;7.400;2023-11-19T04:35:33;98320.88;;;10.64;100.00
68948;BME280;55996;49.546;7.400;2023-11-19T04:37:58;98312.28;;;10.62;100.00
68948;BME280;55996;49.546;7.400;2023-11-19T04:40:24;98320.78;;;10.67;100.00
68948;BME280;55996;49.546;7.400;2023-11-19T04:42:49;98319.00;;;10.68;100.00
68948;BME280;55996;49.546;7.400;2023-11-19T04:45:15;98329.13;;;10.77;100.00
68948;BME280;55996;49.546;7.400;2023-11-19T04:47:44;98321.44;;;10.72;100.00
68948;BME280;55996;49.546;7.400;2023-11-19T04:50:09;98317.78;;;10.76;100.00
68948;BME280;55996;49.546;7.400;2023-11-19T04:52:38;98315.81;;;10.83;100.00
68948;BME280;55996;49.546;7.400;2023-11-19T04:55:05;98321.53;;;10.91;100.00
68948;BME280;55996;49.546;7.400;2023-11-19T04:57:31;98317.13;;;10.93;100.00
68948;BME280;55996;49.546;7.400;2023-11-19T04:59:58;98326.44;;;11.01;100.00
68948;BME280;55996;49.546;7.400;2023-11-19T05:02:23;98322.69;;;11.06;100.00
68948;BME280;55996;49.546;7.400;2023-11-19T05:04:48;98316.88;;;11.00;100.00
68948;BME280;55996;49.546;7.400;2023-11-19T05:07:14;98307.22;;;11.22;100.00
68948;BME280;55996;49.546;7.400;2023-11-19T05:09:39;98311.53;;;11.23;100.00
68948;BME280;55996;49.546;7.400;2023-11-19T05:12:06;98302.25;;;11.37;100.00
68948;BME280;55996;49.546;7.400;2023-11-19T05:14:33;98308.28;;;11.39;100.00
68948;BME280;55996;49.546;7.400;2023-11-19T05:16:59;98305.81;;;11.13;100.00
68948;BME280;55996;49.546;7.400;2023-11-19T05:19:24;98299.50;;;11.19;100.00
68948;BME280;55996;49.546;7.400;2023-11-19T05:21:49;98299.09;;;11.28;100.00
68948;BME280;55996;49.546;7.400;2023-11-19T05:24:17;98313.56;;;11.37;100.00
68948;BME280;55996;49.546;7.400;2023-11-19T05:26:42;98317.16;;;11.35;100.00
68948;BME280;55996;49.546;7.400;2023-11-19T05:29:08;98316.31;;;11.34;100.00
68948;BME280;55996;49.546;7.400;2023-11-19T05:31:33;98319.84;;;11.33;100.00
68948;BME280;55996;49.546;7.400;2023-11-19T05:33:59;98316.06;;;11.40;100.00
68948;BME280;55996;49.546;7.400;2023-11-19T05:36:24;98325.75;;;11.38;100.00
68948;BME280;55996;49.546;7.400;2023-11-19T05:38:49;98316.63;;;11.47;100.00
68948;BME280;55996;49.546;7.400;2023-11-19T05:41:15;98325.22;;;11.51;100.00
68948;BME280;55996;49.546;7.400;2023-11-19T05:43:40;98322.88;;;11.44;100.00
68948;BME280;55996;49.546;7.400;2023-11-19T05:46:06;98318.34;;;11.48;100.00
68948;BME280;55996;49.546;7.400;2023-11-19T05:48:32;98332.88;;;11.55;100.00
68948;BME280;55996;49.546;7.400;2023-11-19T05:50:58;98327.38;;;11.61;100.00
68948;BME280;55996;49.546;7.400;2023-11-19T05:53:23;98316.13;;;11.59;100.00
68948;BME280;55996;49.546;7.400;2023-11-19T05:55:49;98317.91;;;11.59;100.00
68948;BME280;55996;49.546;7.400;2023-11-19T05:58:25;98325.16;;;11.73;100.00
68948;BME280;55996;49.546;7.400;2023-11-19T06:00:52;98329.72;;;11.68;100.00
68948;BME280;55996;49.546;7.400;2023-11-19T06:03:18;98335.25;;;11.61;100.00
68948;BME280;55996;49.546;7.400;2023-11-19T06:05:47;98339.50;;;11.64;100.00
68948;BME280;55996;49.546;7.400;2023-11-19T06:08:13;98325.34;;;11.68;100.00
68948;BME280;55996;49.546;7.400;2023-11-19T06:10:39;98340.94;;;11.71;100.00
68948;BME280;55996;49.546;7.400;2023-11-19T06:13:05;98333.34;;;11.65;100.00
68948;BME280;55996;49.546;7.400;2023-11-19T06:15:32;98317.44;;;11.70;100.00
68948;BME280;55996;49.546;7.400;2023-11-19T06:17:58;98310.56;;;11.67;100.00
68948;BME280;55996;49.546;7.400;2023-11-19T06:20:25;98332.03;;;11.55;100.00
68948;BME280;55996;49.546;7.400;2023-11-19T06:22:50;98317.63;;;11.44;100.00
68948;BME280;55996;49.546;7.400;2023-11-19T06:25:16;98342.19;;;11.62;100.00
68948;BME280;55996;49.546;7.400;2023-11-19T06:27:42;98342.56;;;11.53;100.00
68948;BME280;55996;49.546;7.400;2023-11-19T06:30:08;98330.13;;;11.58;100.00
68948;BME280;55996;49.546;7.400;2023-11-19T06:32:34;98341.78;;;11.72;100.00
68948;BME280;55996;49.546;7.400;2023-11-19T06:34:59;98340.94;;;11.71;100.00
68948;BME280;55996;49.546;7.400;2023-11-19T06:37:24;98345.81;;;11.58;100.00
68948;BME280;55996;49.546;7.400;2023-11-19T06:39:50;98354.88;;;11.51;100.00
68948;BME280;55996;49.546;7.400;2023-11-19T06:42:15;98352.31;;;11.50;100.00
68948;BME280;55996;49.546;7.400;2023-11-19T06:44:41;98358.00;;;11.59;100.00
68948;BME280;55996;49.546;7.400;2023-11-19T06:47:06;98359.84;;;11.57;100.00
68948;BME280;55996;49.546;7.400;2023-11-19T06:49:31;98350.03;;;11.62;100.00
68948;BME280;55996;49.546;7.400;2023-11-19T06:51:57;98350.69;;;11.68;100.00
68948;BME280;55996;49.546;7.400;2023-11-19T06:54:22;98356.25;;;11.60;100.00
68948;BME280;55996;49.546;7.400;2023-11-19T06:56:48;98357.28;;;11.56;100.00
68948;BME280;55996;49.546;7.400;2023-11-19T06:59:14;98362.41;;;11.59;100.00
68948;BME280;55996;49.546;7.400;2023-11-19T07:01:39;98359.66;;;11.41;100.00
68948;BME280;55996;49.546;7.400;2023-11-19T07:04:05;98360.03;;;11.53;100.00
68948;BME280;55996;49.546;7.400;2023-11-19T07:06:35;98372.16;;;11.55;100.00
68948;BME280;55996;49.546;7.400;2023-11-19T07:09:02;98381.56;;;11.59;100.00
68948;BME280;55996;49.546;7.400;2023-11-19T07:11:38;98376.56;;;11.55;100.00
68948;BME280;55996;49.546;7.400;2023-11-19T07:14:04;98385.38;;;11.73;100.00
68948;BME280;55996;49.546;7.400;2023-11-19T07:16:30;98385.03;;;11.81;100.00
68948;BME280;55996;49.546;7.400;2023-11-19T07:18:56;98389.44;;;11.80;100.00
68948;BME280;55996;49.546;7.400;2023-11-19T07:21:21;98395.50;;;11.81;100.00
68948;BME280;55996;49.546;7.400;2023-11-19T07:23:47;98403.59;;;11.97;100.00
68948;BME280;55996;49.546;7.400;2023-11-19T07:26:12;98395.50;;;11.81;100.00
68948;BME280;55996;49.546;7.400;2023-11-19T07:28:37;98401.47;;;11.84;100.00
68948;BME280;55996;49.546;7.400;2023-11-19T07:31:05;98396.78;;;11.92;100.00
68948;BME280;55996;49.546;7.400;2023-11-19T07:33:33;98396.25;;;11.84;100.00
68948;BME280;55996;49.546;7.400;2023-11-19T07:35:58;98403.34;;;11.82;100.00
68948;BME280;55996;49.546;7.400;2023-11-19T07:38:24;98397.94;;;11.85;100.00
68948;BME280;55996;49.546;7.400;2023-11-19T07:40:49;98390.97;;;11.86;100.00
68948;BME280;55996;49.546;7.400;2023-11-19T07:43:15;98376.47;;;11.77;100.00
68948;BME280;55996;49.546;7.400;2023-11-19T07:45:40;98381.00;;;11.73;100.00
68948;BME280;55996;49.546;7.400;2023-11-19T07:48:10;98386.09;;;11.76;100.00
68948;BME280;55996;49.546;7.400;2023-11-19T07:50:36;98394.53;;;11.83;100.00
68948;BME280;55996;49.546;7.400;2023-11-19T07:53:01;98410.06;;;11.88;100.00
68948;BME280;55996;49.546;7.400;2023-11-19T07:55:29;98398.75;;;11.87;100.00
68948;BME280;55996;49.546;7.400;2023-11-19T07:57:54;98406.69;;;11.86;100.00
68948;BME280;55996;49.546;7.400;2023-11-19T08:00:20;98396.97;;;11.88;100.00
68948;BME280;55996;49.546;7.400;2023-11-19T08:02:45;98413.25;;;11.96;100.00
68948;BME280;55996;49.546;7.400;2023-11-19T08:05:10;98417.09;;;12.08;100.00
68948;BME280;55996;49.546;7.400;2023-11-19T08:07:37;98425.88;;;12.07;100.00
68948;BME280;55996;49.546;7.400;2023-11-19T08:10:02;98428.34;;;12.10;100.00
68948;BME280;55996;49.546;7.400;2023-11-19T08:12:30;98412.78;;;12.07;100.00
68948;BME280;55996;49.546;7.400;2023-11-19T08:14:56;98418.34;;;11.99;100.00
68948;BME280;55996;49.546;7.400;2023-11-19T08:17:21;98403.22;;;12.06;100.00
68948;BME280;55996;49.546;7.400;2023-11-19T08:19:48;98413.69;;;12.06;100.00
68948;BME280;55996;49.546;7.400;2023-11-19T08:22:13;98417.88;;;12.10;100.00
68948;BME280;55996;49.546;7.400;2023-11-19T08:24:39;98418.94;;;12.06;100.00
68948;BME280;55996;49.546;7.400;2023-11-19T08:27:04;98418.53;;;12.15;100.00
68948;BME280;55996;49.546;7.400;2023-11-19T08:29:30;98415.78;;;12.18;100.00
68948;BME280;55996;49.546;7.400;2023-11-19T08:31:55;98427.75;;;12.24;100.00
68948;BME280;55996;49.546;7.400;2023-11-19T08:34:20;98430.75;;;12.35;100.00
68948;BME280;55996;49.546;7.400;2023-11-19T08:36:50;98419.03;;;12.44;100.00
68948;BME280;55996;49.546;7.400;2023-11-19T08:39:15;98427.38;;;12.52;100.00
68948;BME280;55996;49.546;7.400;2023-11-19T08:41:40;98410.09;;;12.48;100.00
68948;BME280;55996;49.546;7.400;2023-11-19T08:44:07;98420.22;;;12.56;100.00
68948;BME280;55996;49.546;7.400;2023-11-19T08:46:32;98419.03;;;12.44;100.00
68948;BME280;55996;49.546;7.400;2023-11-19T08:48:57;98423.69;;;12.56;100.00
68948;BME280;55996;49.546;7.400;2023-11-19T08:51:24;98423.56;;;12.59;100.00
68948;BME280;55996;49.546;7.400;2023-11-19T08:53:50;98422.00;;;12.74;100.00
68948;BME280;55996;49.546;7.400;2023-11-19T08:56:15;98424.00;;;12.69;100.00
68948;BME280;55996;49.546;7.400;2023-11-19T08:58:40;98429.06;;;12.72;100.00
68948;BME280;55996;49.546;7.400;2023-11-19T09:01:06;98445.13;;;12.85;100.00
68948;BME280;55996;49.546;7.400;2023-11-19T09:03:31;98432.06;;;12.84;100.00
68948;BME280;55996;49.546;7.400;2023-11-19T09:05:57;98435.50;;;13.03;100.00
68948;BME280;55996;49.546;7.400;2023-11-19T09:08:22;98434.09;;;13.15;100.00
68948;BME280;55996;49.546;7.400;2023-11-19T09:10:48;98444.63;;;13.33;100.00
68948;BME280;55996;49.546;7.400;2023-11-19T09:13:13;98446.47;;;13.50;100.00
68948;BME280;55996;49.546;7.400;2023-11-19T09:15:38;98429.84;;;13.49;100.00
68948;BME280;55996;49.546;7.400;2023-11-19T09:18:04;98440.53;;;13.64;100.00
68948;BME280;55996;49.546;7.400;2023-11-19T09:20:30;98426.31;;;13.50;100.00
68948;BME280;55996;49.546;7.400;2023-11-19T09:23:02;98452.28;;;13.74;100.00
68948;BME280;55996;49.546;7.400;2023-11-19T09:25:28;98448.94;;;13.70;100.00
68948;BME280;55996;49.546;7.400;2023-11-19T09:27:53;98456.22;;;13.65;100.00
68948;BME280;55996;49.546;7.400;2023-11-19T09:30:19;98447.88;;;13.57;100.00
68948;BME280;55996;49.546;7.400;2023-11-19T09:32:45;98448.34;;;13.65;100.00
68948;BME280;55996;49.546;7.400;2023-11-19T09:35:10;98446.72;;;13.80;100.00
68948;BME280;55996;49.546;7.400;2023-11-19T09:37:38;98457.31;;;13.79;100.00
68948;BME280;55996;49.546;7.400;2023-11-19T09:40:05;98464.09;;;13.83;100.00
68948;BME280;55996;49.546;7.400;2023-11-19T09:42:42;98464.06;;;14.02;100.00
68948;BME280;55996;49.546;7.400;2023-11-19T09:45:13;98477.63;;;13.93;100.00
68948;BME280;55996;49.546;7.400;2023-11-19T09:47:39;98440.50;;;14.16;100.00
68948;BME280;55996;49.546;7.400;2023-11-19T09:50:05;98447.66;;;14.14;100.00
68948;BME280;55996;49.546;7.400;2023-11-19T09:52:31;98441.91;;;14.24;100.00
68948;BME280;55996;49.546;7.400;2023-11-19T09:54:56;98435.19;;;14.18;100.00
68948;BME280;55996;49.546;7.400;2023-11-19T09:57:22;98444.47;;;14.25;100.00
68948;BME280;55996;49.546;7.400;2023-11-19T09:59:48;98449.16;;;14.36;100.00
68948;BME280;55996;49.546;7.400;2023-11-19T10:02:14;98437.59;;;14.05;100.00
68948;BME280;55996;49.546;7.400;2023-11-19T10:04:40;98439.06;;;14.11;100.00
68948;BME280;55996;49.546;7.400;2023-11-19T10:07:07;98432.78;;;14.31;100.00
68948;BME280;55996;49.546;7.400;2023-11-19T10:09:32;98427.75;;;14.26;100.00
68948;BME280;55996;49.546;7.400;2023-11-19T10:11:58;98430.69;;;14.20;100.00
68948;BME280;55996;49.546;7.400;2023-11-19T10:14:23;98432.44;;;14.37;100.00
68948;BME280;55996;49.546;7.400;2023-11-19T10:16:49;98435.56;;;14.61;100.00
68948;BME280;55996;49.546;7.400;2023-11-19T10:19:23;98427.88;;;14.41;100.00
68948;BME280;55996;49.546;7.400;2023-11-19T10:21:49;98427.63;;;14.12;100.00
68948;BME280;55996;49.546;7.400;2023-11-19T10:24:15;98430.03;;;13.99;100.00
68948;BME280;55996;49.546;7.400;2023-11-19T10:26:40;98427.56;;;13.96;100.00
68948;BME280;55996;49.546;7.400;2023-11-19T10:29:07;98442.41;;;13.97;100.00
68948;BME280;55996;49.546;7.400;2023-11-19T10:31:32;98437.38;;;13.75;100.00
68948;BME280;55996;49.546;7.400;2023-11-19T10:33:58;98437.91;;;13.64;100.00
68948;BME280;55996;49.546;7.400;2023-11-19T10:36:37;98443.03;;;13.67;100.00
68948;BME280;55996;49.546;7.400;2023-11-19T10:39:03;98436.78;;;13.69;100.00
68948;BME280;55996;49.546;7.400;2023-11-19T10:41:32;98442.06;;;13.50;100.00
68948;BME280;55996;49.546;7.400;2023-11-19T10:43:58;98445.41;;;13.35;100.00
68948;BME280;55996;49.546;7.400;2023-11-19T10:46:36;98428.97;;;13.12;100.00
68948;BME280;55996;49.546;7.400;2023-11-19T10:49:03;98442.50;;;12.85;100.00
68948;BME280;55996;49.546;7.400;2023-11-19T10:51:29;98438.00;;;12.87;100.00
68948;BME280;55996;49.546;7.400;2023-11-19T10:53:56;98439.09;;;12.83;100.00
68948;BME280;55996;49.546;7.400;2023-11-19T10:56:29;98447.66;;;12.68;100.00
68948;BME280;55996;49.546;7.400;2023-11-19T10:58:56;98448.66;;;12.65;100.00
68948;BME280;55996;49.546;7.400;2023-11-19T11:01:27;98448.50;;;12.87;100.00
68948;BME280;55996;49.546;7.400;2023-11-19T11:03:59;98423.69;;;12.95;100.00
68948;BME280;55996;49.546;7.400;2023-11-19T11:06:26;98441.13;;;13.15;100.00
68948;BME280;55996;49.546;7.400;2023-11-19T11:08:53;98429.19;;;13.27;100.00
68948;BME280;55996;49.546;7.400;2023-11-19T11:11:19;98433.66;;;13.24;100.00
68948;BME280;55996;49.546;7.400;2023-11-19T11:13:50;98439.13;;;13.01;100.00
68948;BME280;55996;49.546;7.400;2023-11-19T11:16:19;98425.44;;;13.13;100.00
68948;BME280;55996;49.546;7.400;2023-11-19T11:18:46;98425.72;;;13.26;100.00
68948;BME280;55996;49.546;7.400;2023-11-19T11:21:17;98425.16;;;13.38;100.00
68948;BME280;55996;49.546;7.400;2023-11-19T11:39:52;98429.44;;;13.03;100.00
68948;BME280;55996;49.546;7.400;2023-11-19T11:50:12;98420.72;;;12.83;100.00
68948;BME280;55996;49.546;7.400;2023-11-19T11:53:14;98417.44;;;13.16;100.00
68948;BME280;55996;49.546;7.400;2023-11-19T11:58:25;98413.41;;;13.46;100.00
68948;BME280;55996;49.546;7.400;2023-11-19T12:00:51;98418.44;;;13.68;100.00
68948;BME280;55996;49.546;7.400;2023-11-19T12:03:20;98414.88;;;13.69;100.00
68948;BME280;55996;49.546;7.400;2023-11-19T12:05:47;98401.44;;;13.58;100.00
68948;BME280;55996;49.546;7.400;2023-11-19T12:08:14;98414.19;;;13.65;100.00
68948;BME280;55996;49.546;7.400;2023-11-19T12:10:48;98409.94;;;13.63;100.00
68948;BME280;55996;49.546;7.400;2023-11-19T12:13:15;98402.22;;;13.77;100.00
68948;BME280;55996;49.546;7.400;2023-11-19T12:20:48;98405.31;;;13.85;100.00
68948;BME280;55996;49.546;7.400;2023-11-19T12:23:14;98381.50;;;13.88;100.00
68948;BME280;55996;49.546;7.400;2023-11-19T12:25:40;98379.72;;;13.89;100.00
68948;BME280;55996;49.546;7.400;2023-11-19T12:28:12;98367.16;;;13.78;100.00
68948;BME280;55996;49.546;7.400;2023-11-19T12:30:38;98372.16;;;14.00;100.00
68948;BME280;55996;49.546;7.400;2023-11-19T12:33:08;98366.50;;;14.24;100.00
68948;BME280;55996;49.546;7.400;2023-11-19T12:35:45;98341.84;;;14.43;100.00
68948;BME280;55996;49.546;7.400;2023-11-19T12:38:20;98351.91;;;14.68;100.00
68948;BME280;55996;49.546;7.400;2023-11-19T12:40:46;98318.94;;;14.61;100.00
68948;BME280;55996;49.546;7.400;2023-11-19T12:43:21;98353.41;;;15.04;100.00
68948;BME280;55996;49.546;7.400;2023-11-19T12:45:47;98348.59;;;16.02;100.00
68948;BME280;55996;49.546;7.400;2023-11-19T12:48:12;98335.44;;;16.31;90.42
68948;BME280;55996;49.546;7.400;2023-11-19T12:50:54;98331.34;;;16.96;79.30
68948;BME280;55996;49.546;7.400;2023-11-19T12:53:21;98320.66;;;16.56;86.84
68948;BME280;55996;49.546;7.400;2023-11-19T12:55:48;98348.28;;;15.78;84.85
68948;BME280;55996;49.546;7.400;2023-11-19T12:58:34;98347.28;;;16.09;86.60
68948;BME280;55996;49.546;7.400;2023-11-19T13:01:05;98354.06;;;16.42;80.63
68948;BME280;55996;49.546;7.400;2023-11-19T13:03:35;98330.13;;;17.15;73.28
68948;BME280;55996;49.546;7.400;2023-11-19T13:06:05;98328.84;;;17.73;70.41
68948;BME280;55996;49.546;7.400;2023-11-19T13:08:42;98317.34;;;18.26;64.42
68948;BME280;55996;49.546;7.400;2023-11-19T13:11:10;98313.84;;;18.13;65.14
68948;BME280;55996;49.546;7.400;2023-11-19T13:13:58;98316.38;;;18.14;62.04
68948;BME280;55996;49.546;7.400;2023-11-19T13:16:24;98319.22;;;17.06;67.83
68948;BME280;55996;49.546;7.400;2023-11-19T13:18:50;98330.53;;;16.10;75.17
68948;BME280;55996;49.546;7.400;2023-11-19T13:21:16;98327.38;;;14.83;83.42
68948;BME280;55996;49.546;7.400;2023-11-19T13:23:42;98332.84;;;14.47;86.74
68948;BME280;55996;49.546;7.400;2023-11-19T13:26:08;98328.72;;;13.93;90.08